sensor_id;sensor_type;location;lat;lon;timestamp;P1;durP1;ratioP1;P2;durP2;ratioP2
79076;SDS011;68477;42.698;23.342;2024-01-06T00:02:16;65.40;;;34.00;;
79076;SDS011;68477;42.698;23.342;2024-01-06T00:04:41;70.32;;;33.58;;
79076;SDS011;68477;42.698;23.342;2024-01-06T00:07:07;59.95;;;33.00;;
79076;SDS011;68477;42.698;23.342;2024-01-06T00:09:32;68.03;;;32.08;;
79076;SDS011;68477;42.698;23.342;2024-01-06T00:11:58;68.10;;;32.08;;
79076;SDS011;68477;42.698;23.342;2024-01-06T00:14:23;70.22;;;35.15;;
79076;SDS011;68477;42.698;23.342;2024-01-06T00:16:49;68.93;;;34.15;;
79076;SDS011;68477;42.698;23.342;2024-01-06T00:19:15;60.78;;;34.55;;
79076;SDS011;68477;42.698;23.342;2024-01-06T00:21:42;70.30;;;35.97;;
79076;SDS011;68477;42.698;23.342;2024-01-06T00:24:08;69.78;;;35.78;;
79076;SDS011;68477;42.698;23.342;2024-01-06T00:26:33;68.38;;;35.30;;
79076;SDS011;68477;42.698;23.342;2024-01-06T00:28:59;68.47;;;36.80;;
79076;SDS011;68477;42.698;23.342;2024-01-06T00:31:24;73.53;;;40.25;;
79076;SDS011;68477;42.698;23.342;2024-01-06T00:33:50;68.25;;;34.17;;
79076;SDS011;68477;42.698;23.342;2024-01-06T00:36:15;76.78;;;37.83;;
79076;SDS011;68477;42.698;23.342;2024-01-06T00:38:41;64.78;;;37.53;;
79076;SDS011;68477;42.698;23.342;2024-01-06T00:41:07;73.82;;;36.40;;
79076;SDS011;68477;42.698;23.342;2024-01-06T00:43:33;63.50;;;36.67;;
79076;SDS011;68477;42.698;23.342;2024-01-06T00:45:58;71.25;;;34.50;;
79076;SDS011;68477;42.698;23.342;2024-01-06T00:48:24;63.92;;;33.70;;
79076;SDS011;68477;42.698;23.342;2024-01-06T00:50:49;68.32;;;33.20;;
79076;SDS011;68477;42.698;23.342;2024-01-06T00:53:15;65.78;;;36.88;;
79076;SDS011;68477;42.698;23.342;2024-01-06T00:55:40;66.22;;;36.35;;
79076;SDS011;68477;42.698;23.342;2024-01-06T00:58:06;73.43;;;40.45;;
79076;SDS011;68477;42.698;23.342;2024-01-06T01:00:31;68.20;;;38.88;;
79076;SDS011;68477;42.698;23.342;2024-01-06T01:02:57;66.63;;;34.05;;
79076;SDS011;68477;42.698;23.342;2024-01-06T01:05:22;69.65;;;36.60;;
79076;SDS011;68477;42.698;23.342;2024-01-06T01:07:48;78.60;;;38.10;;
79076;SDS011;68477;42.698;23.342;2024-01-06T01:10:13;71.75;;;37.83;;
79076;SDS011;68477;42.698;23.342;2024-01-06T01:12:39;69.20;;;38.40;;
79076;SDS011;68477;42.698;23.342;2024-01-06T01:15:06;72.20;;;36.58;;
79076;SDS011;68477;42.698;23.342;2024-01-06T01:17:32;75.70;;;36.13;;
79076;SDS011;68477;42.698;23.342;2024-01-06T01:19:59;68.57;;;32.30;;
79076;SDS011;68477;42.698;23.342;2024-01-06T01:22:25;62.80;;;33.72;;
79076;SDS011;68477;42.698;23.342;2024-01-06T01:24:50;68.65;;;36.75;;
79076;SDS011;68477;42.698;23.342;2024-01-06T01:27:16;64.72;;;35.67;;
79076;SDS011;68477;42.698;23.342;2024-01-06T01:29:41;61.10;;;29.42;;
79076;SDS011;68477;42.698;23.342;2024-01-06T01:32:07;58.22;;;32.88;;
79076;SDS011;68477;42.698;23.342;2024-01-06T01:34:32;66.53;;;31.70;;
79076;SDS011;68477;42.698;23.342;2024-01-06T01:36:59;63.00;;;31.70;;
79076;SDS011;68477;42.698;23.342;2024-01-06T01:39:25;68.35;;;33.35;;
79076;SDS011;68477;42.698;23.342;2024-01-06T01:41:50;65.63;;;32.67;;
79076;SDS011;68477;42.698;23.342;2024-01-06T01:44:16;58.22;;;32.25;;
79076;SDS011;68477;42.698;23.342;2024-01-06T01:46:41;61.65;;;31.50;;
79076;SDS011;68477;42.698;23.342;2024-01-06T01:49:07;56.42;;;31.13;;
79076;SDS011;68477;42.698;23.342;2024-01-06T01:51:34;58.03;;;29.60;;
79076;SDS011;68477;42.698;23.342;2024-01-06T01:54:01;67.32;;;31.23;;
79076;SDS011;68477;42.698;23.342;2024-01-06T01:56:27;59.88;;;31.67;;
79076;SDS011;68477;42.698;23.342;2024-01-06T01:58:59;67.47;;;33.30;;
79076;SDS011;68477;42.698;23.342;2024-01-06T02:01:32;64.72;;;34.30;;
79076;SDS011;68477;42.698;23.342;2024-01-06T02:03:58;67.72;;;34.72;;
79076;SDS011;68477;42.698;23.342;2024-01-06T02:06:24;59.22;;;30.30;;
79076;SDS011;68477;42.698;23.342;2024-01-06T02:08:49;63.15;;;35.67;;
79076;SDS011;68477;42.698;23.342;2024-01-06T02:11:15;64.82;;;32.33;;
79076;SDS011;68477;42.698;23.342;2024-01-06T02:13:40;63.83;;;31.70;;
79076;SDS011;68477;42.698;23.342;2024-01-06T02:16:06;60.03;;;31.25;;
79076;SDS011;68477;42.698;23.342;2024-01-06T02:18:32;57.50;;;29.27;;
79076;SDS011;68477;42.698;23.342;2024-01-06T02:20:58;60.65;;;32.42;;
79076;SDS011;68477;42.698;23.342;2024-01-06T02:23:26;65.13;;;34.25;;
79076;SDS011;68477;42.698;23.342;2024-01-06T02:25:52;64.47;;;37.08;;
79076;SDS011;68477;42.698;23.342;2024-01-06T02:28:18;60.25;;;32.00;;
79076;SDS011;68477;42.698;23.342;2024-01-06T02:30:43;60.53;;;34.20;;
79076;SDS011;68477;42.698;23.342;2024-01-06T02:33:09;59.15;;;34.88;;
79076;SDS011;68477;42.698;23.342;2024-01-06T02:35:35;60.38;;;31.80;;
79076;SDS011;68477;42.698;23.342;2024-01-06T02:38:00;77.35;;;41.20;;
79076;SDS011;68477;42.698;23.342;2024-01-06T02:40:28;71.90;;;42.50;;
79076;SDS011;68477;42.698;23.342;2024-01-06T02:42:54;68.20;;;36.13;;
79076;SDS011;68477;42.698;23.342;2024-01-06T02:45:20;71.78;;;38.88;;
79076;SDS011;68477;42.698;23.342;2024-01-06T02:47:45;73.85;;;40.70;;
79076;SDS011;68477;42.698;23.342;2024-01-06T02:50:11;82.07;;;42.40;;
79076;SDS011;68477;42.698;23.342;2024-01-06T02:52:36;73.70;;;37.70;;
79076;SDS011;68477;42.698;23.342;2024-01-06T02:55:02;79.00;;;42.90;;
79076;SDS011;68477;42.698;23.342;2024-01-06T02:57:29;74.68;;;38.28;;
79076;SDS011;68477;42.698;23.342;2024-01-06T02:59:55;77.82;;;41.63;;
79076;SDS011;68477;42.698;23.342;2024-01-06T03:02:21;90.63;;;45.72;;
79076;SDS011;68477;42.698;23.342;2024-01-06T03:04:47;87.90;;;46.67;;
79076;SDS011;68477;42.698;23.342;2024-01-06T03:07:12;89.13;;;43.63;;
79076;SDS011;68477;42.698;23.342;2024-01-06T03:09:38;74.68;;;39.35;;
79076;SDS011;68477;42.698;23.342;2024-01-06T03:12:06;78.25;;;44.58;;
79076;SDS011;68477;42.698;23.342;2024-01-06T03:14:35;83.50;;;44.85;;
79076;SDS011;68477;42.698;23.342;2024-01-06T03:17:01;46.55;;;21.63;;
79076;SDS011;68477;42.698;23.342;2024-01-06T03:19:28;64.57;;;32.05;;
79076;SDS011;68477;42.698;23.342;2024-01-06T03:21:54;83.60;;;47.60;;
79076;SDS011;68477;42.698;23.342;2024-01-06T03:24:37;96.10;;;52.65;;
79076;SDS011;68477;42.698;23.342;2024-01-06T03:27:05;83.95;;;48.80;;
79076;SDS011;68477;42.698;23.342;2024-01-06T03:29:30;90.35;;;48.13;;
79076;SDS011;68477;42.698;23.342;2024-01-06T03:31:55;92.57;;;50.13;;
79076;SDS011;68477;42.698;23.342;2024-01-06T03:34:21;92.05;;;53.60;;
79076;SDS011;68477;42.698;23.342;2024-01-06T03:36:46;95.88;;;51.97;;
79076;SDS011;68477;42.698;23.342;2024-01-06T03:39:12;94.30;;;51.80;;
79076;SDS011;68477;42.698;23.342;2024-01-06T03:41:39;102.50;;;57.90;;
79076;SDS011;68477;42.698;23.342;2024-01-06T03:44:04;96.47;;;55.65;;
79076;SDS011;68477;42.698;23.342;2024-01-06T03:46:30;106.63;;;58.20;;
79076;SDS011;68477;42.698;23.342;2024-01-06T03:48:55;87.78;;;48.03;;
79076;SDS011;68477;42.698;23.342;2024-01-06T03:51:21;94.35;;;49.90;;
79076;SDS011;68477;42.698;23.342;2024-01-06T03:53:47;90.50;;;50.47;;
79076;SDS011;68477;42.698;23.342;2024-01-06T03:56:12;84.30;;;49.70;;
79076;SDS011;68477;42.698;23.342;2024-01-06T03:58:38;83.13;;;47.95;;
79076;SDS011;68477;42.698;23.342;2024-01-06T04:01:04;87.88;;;47.92;;
79076;SDS011;68477;42.698;23.342;2024-01-06T04:03:29;112.32;;;55.75;;
79076;SDS011;68477;42.698;23.342;2024-01-06T04:05:55;98.75;;;49.83;;
79076;SDS011;68477;42.698;23.342;2024-01-06T04:08:20;109.80;;;60.97;;
79076;SDS011;68477;42.698;23.342;2024-01-06T04:10:45;110.82;;;59.67;;
79076;SDS011;68477;42.698;23.342;2024-01-06T04:13:11;105.70;;;56.80;;
79076;SDS011;68477;42.698;23.342;2024-01-06T04:15:37;115.57;;;63.70;;
79076;SDS011;68477;42.698;23.342;2024-01-06T04:18:03;110.75;;;60.78;;
79076;SDS011;68477;42.698;23.342;2024-01-06T04:20:29;106.95;;;58.80;;
79076;SDS011;68477;42.698;23.342;2024-01-06T04:22:55;100.85;;;60.05;;
79076;SDS011;68477;42.698;23.342;2024-01-06T04:25:21;109.80;;;58.58;;
79076;SDS011;68477;42.698;23.342;2024-01-06T04:27:47;114.80;;;59.15;;
79076;SDS011;68477;42.698;23.342;2024-01-06T04:30:14;110.22;;;59.50;;
79076;SDS011;68477;42.698;23.342;2024-01-06T04:32:40;96.60;;;56.50;;
79076;SDS011;68477;42.698;23.342;2024-01-06T04:35:05;98.80;;;54.88;;
79076;SDS011;68477;42.698;23.342;2024-01-06T04:37:31;102.35;;;56.03;;
79076;SDS011;68477;42.698;23.342;2024-01-06T04:39:57;105.55;;;58.03;;
79076;SDS011;68477;42.698;23.342;2024-01-06T04:42:22;99.32;;;53.28;;
79076;SDS011;68477;42.698;23.342;2024-01-06T04:44:49;97.25;;;53.10;;
79076;SDS011;68477;42.698;23.342;2024-01-06T04:47:15;100.05;;;51.92;;
79076;SDS011;68477;42.698;23.342;2024-01-06T04:49:40;96.93;;;50.58;;
79076;SDS011;68477;42.698;23.342;2024-01-06T04:52:06;93.22;;;49.00;;
79076;SDS011;68477;42.698;23.342;2024-01-06T04:54:32;85.10;;;44.75;;
79076;SDS011;68477;42.698;23.342;2024-01-06T04:57:00;76.35;;;41.30;;
79076;SDS011;68477;42.698;23.342;2024-01-06T04:59:26;83.13;;;39.88;;
79076;SDS011;68477;42.698;23.342;2024-01-06T05:01:51;68.80;;;38.20;;
79076;SDS011;68477;42.698;23.342;2024-01-06T05:04:18;74.10;;;37.03;;
79076;SDS011;68477;42.698;23.342;2024-01-06T05:06:44;66.80;;;37.35;;
79076;SDS011;68477;42.698;23.342;2024-01-06T05:09:09;68.03;;;35.55;;
79076;SDS011;68477;42.698;23.342;2024-01-06T05:11:35;71.10;;;36.50;;
79076;SDS011;68477;42.698;23.342;2024-01-06T05:14:00;64.22;;;32.88;;
79076;SDS011;68477;42.698;23.342;2024-01-06T05:16:26;76.40;;;40.75;;
79076;SDS011;68477;42.698;23.342;2024-01-06T05:18:52;69.45;;;39.63;;
79076;SDS011;68477;42.698;23.342;2024-01-06T05:21:18;69.72;;;37.83;;
79076;SDS011;68477;42.698;23.342;2024-01-06T05:23:44;77.68;;;39.15;;
79076;SDS011;68477;42.698;23.342;2024-01-06T05:26:10;72.25;;;38.30;;
79076;SDS011;68477;42.698;23.342;2024-01-06T05:28:36;75.43;;;41.03;;
79076;SDS011;68477;42.698;23.342;2024-01-06T05:31:02;69.93;;;37.80;;
79076;SDS011;68477;42.698;23.342;2024-01-06T05:33:27;76.65;;;39.17;;
79076;SDS011;68477;42.698;23.342;2024-01-06T05:35:53;74.20;;;37.13;;
79076;SDS011;68477;42.698;23.342;2024-01-06T05:38:18;74.35;;;38.17;;
79076;SDS011;68477;42.698;23.342;2024-01-06T05:40:44;67.38;;;36.17;;
79076;SDS011;68477;42.698;23.342;2024-01-06T05:43:09;58.03;;;29.55;;
79076;SDS011;68477;42.698;23.342;2024-01-06T05:45:35;46.50;;;24.85;;
79076;SDS011;68477;42.698;23.342;2024-01-06T05:48:02;70.97;;;38.42;;
79076;SDS011;68477;42.698;23.342;2024-01-06T05:50:28;53.88;;;28.73;;
79076;SDS011;68477;42.698;23.342;2024-01-06T05:52:53;35.08;;;19.00;;
79076;SDS011;68477;42.698;23.342;2024-01-06T05:55:19;45.72;;;23.38;;
79076;SDS011;68477;42.698;23.342;2024-01-06T05:57:44;40.45;;;17.30;;
79076;SDS011;68477;42.698;23.342;2024-01-06T06:00:10;40.45;;;22.50;;
79076;SDS011;68477;42.698;23.342;2024-01-06T06:02:36;35.53;;;19.52;;
79076;SDS011;68477;42.698;23.342;2024-01-06T06:05:02;37.45;;;17.60;;
79076;SDS011;68477;42.698;23.342;2024-01-06T06:07:27;31.17;;;16.80;;
79076;SDS011;68477;42.698;23.342;2024-01-06T06:09:53;37.53;;;19.40;;
79076;SDS011;68477;42.698;23.342;2024-01-06T06:12:19;48.00;;;25.40;;
79076;SDS011;68477;42.698;23.342;2024-01-06T06:14:44;53.22;;;26.70;;
79076;SDS011;68477;42.698;23.342;2024-01-06T06:17:10;47.67;;;24.33;;
79076;SDS011;68477;42.698;23.342;2024-01-06T06:19:35;37.08;;;16.15;;
79076;SDS011;68477;42.698;23.342;2024-01-06T06:22:01;24.67;;;13.82;;
79076;SDS011;68477;42.698;23.342;2024-01-06T06:24:26;24.40;;;14.88;;
79076;SDS011;68477;42.698;23.342;2024-01-06T06:26:52;29.67;;;14.85;;
79076;SDS011;68477;42.698;23.342;2024-01-06T06:29:17;31.05;;;14.65;;
79076;SDS011;68477;42.698;23.342;2024-01-06T06:31:43;22.95;;;11.70;;
79076;SDS011;68477;42.698;23.342;2024-01-06T06:34:10;26.63;;;14.63;;
79076;SDS011;68477;42.698;23.342;2024-01-06T06:36:35;23.40;;;12.35;;
79076;SDS011;68477;42.698;23.342;2024-01-06T06:39:01;16.90;;;11.40;;
79076;SDS011;68477;42.698;23.342;2024-01-06T06:41:29;16.77;;;9.43;;
79076;SDS011;68477;42.698;23.342;2024-01-06T06:43:54;22.23;;;10.43;;
79076;SDS011;68477;42.698;23.342;2024-01-06T06:46:20;28.02;;;12.75;;
79076;SDS011;68477;42.698;23.342;2024-01-06T06:48:46;24.48;;;13.70;;
79076;SDS011;68477;42.698;23.342;2024-01-06T06:51:12;34.22;;;16.08;;
79076;SDS011;68477;42.698;23.342;2024-01-06T06:53:38;28.20;;;14.05;;
79076;SDS011;68477;42.698;23.342;2024-01-06T06:56:04;25.08;;;13.18;;
79076;SDS011;68477;42.698;23.342;2024-01-06T06:58:29;26.92;;;14.32;;
79076;SDS011;68477;42.698;23.342;2024-01-06T07:00:55;28.98;;;17.13;;
79076;SDS011;68477;42.698;23.342;2024-01-06T07:03:20;37.67;;;17.65;;
79076;SDS011;68477;42.698;23.342;2024-01-06T07:05:46;28.08;;;15.05;;
79076;SDS011;68477;42.698;23.342;2024-01-06T07:08:11;39.00;;;21.15;;
79076;SDS011;68477;42.698;23.342;2024-01-06T07:10:39;42.13;;;23.40;;
79076;SDS011;68477;42.698;23.342;2024-01-06T07:13:05;39.33;;;20.88;;
79076;SDS011;68477;42.698;23.342;2024-01-06T07:15:31;45.22;;;21.25;;
79076;SDS011;68477;42.698;23.342;2024-01-06T07:17:56;43.40;;;20.02;;
79076;SDS011;68477;42.698;23.342;2024-01-06T07:20:21;34.97;;;17.00;;
79076;SDS011;68477;42.698;23.342;2024-01-06T07:22:47;31.00;;;15.70;;
79076;SDS011;68477;42.698;23.342;2024-01-06T07:25:12;41.88;;;15.68;;
79076;SDS011;68477;42.698;23.342;2024-01-06T07:27:38;27.17;;;14.30;;
79076;SDS011;68477;42.698;23.342;2024-01-06T07:30:04;25.17;;;14.10;;
79076;SDS011;68477;42.698;23.342;2024-01-06T07:32:30;27.55;;;13.13;;
79076;SDS011;68477;42.698;23.342;2024-01-06T07:34:56;26.60;;;11.98;;
79076;SDS011;68477;42.698;23.342;2024-01-06T07:37:21;15.45;;;10.23;;
79076;SDS011;68477;42.698;23.342;2024-01-06T07:39:47;18.88;;;10.70;;
79076;SDS011;68477;42.698;23.342;2024-01-06T07:42:12;17.83;;;9.65;;
79076;SDS011;68477;42.698;23.342;2024-01-06T07:44:38;59.00;;;27.40;;
79076;SDS011;68477;42.698;23.342;2024-01-06T07:47:03;22.02;;;12.95;;
79076;SDS011;68477;42.698;23.342;2024-01-06T07:49:30;38.15;;;19.55;;
79076;SDS011;68477;42.698;23.342;2024-01-06T07:51:56;44.80;;;23.25;;
79076;SDS011;68477;42.698;23.342;2024-01-06T07:54:22;39.92;;;23.45;;
79076;SDS011;68477;42.698;23.342;2024-01-06T07:56:47;44.63;;;24.90;;
79076;SDS011;68477;42.698;23.342;2024-01-06T07:59:13;46.65;;;26.70;;
79076;SDS011;68477;42.698;23.342;2024-01-06T08:01:39;57.30;;;28.85;;
79076;SDS011;68477;42.698;23.342;2024-01-06T08:04:04;59.35;;;31.08;;
79076;SDS011;68477;42.698;23.342;2024-01-06T08:06:30;62.58;;;34.25;;
79076;SDS011;68477;42.698;23.342;2024-01-06T08:08:55;65.55;;;33.60;;
79076;SDS011;68477;42.698;23.342;2024-01-06T08:11:21;71.82;;;35.95;;
79076;SDS011;68477;42.698;23.342;2024-01-06T08:13:46;62.35;;;35.30;;
79076;SDS011;68477;42.698;23.342;2024-01-06T08:16:12;82.18;;;42.92;;
79076;SDS011;68477;42.698;23.342;2024-01-06T08:18:38;75.53;;;42.92;;
79076;SDS011;68477;42.698;23.342;2024-01-06T08:21:03;87.43;;;45.22;;
79076;SDS011;68477;42.698;23.342;2024-01-06T08:23:29;90.85;;;49.55;;
79076;SDS011;68477;42.698;23.342;2024-01-06T08:25:54;63.10;;;32.50;;
79076;SDS011;68477;42.698;23.342;2024-01-06T08:28:21;75.30;;;39.45;;
79076;SDS011;68477;42.698;23.342;2024-01-06T08:30:48;63.38;;;35.10;;
79076;SDS011;68477;42.698;23.342;2024-01-06T08:33:14;65.32;;;35.80;;
79076;SDS011;68477;42.698;23.342;2024-01-06T08:35:39;74.63;;;35.63;;
79076;SDS011;68477;42.698;23.342;2024-01-06T08:38:08;64.70;;;37.33;;
79076;SDS011;68477;42.698;23.342;2024-01-06T08:40:34;53.58;;;30.45;;
79076;SDS011;68477;42.698;23.342;2024-01-06T08:43:00;54.47;;;31.27;;
79076;SDS011;68477;42.698;23.342;2024-01-06T08:45:26;54.58;;;27.90;;
79076;SDS011;68477;42.698;23.342;2024-01-06T08:47:52;50.50;;;26.55;;
79076;SDS011;68477;42.698;23.342;2024-01-06T08:50:17;51.35;;;26.70;;
79076;SDS011;68477;42.698;23.342;2024-01-06T08:52:43;49.72;;;26.58;;
79076;SDS011;68477;42.698;23.342;2024-01-06T08:55:08;57.80;;;27.48;;
79076;SDS011;68477;42.698;23.342;2024-01-06T08:57:34;52.13;;;27.08;;
79076;SDS011;68477;42.698;23.342;2024-01-06T08:59:59;55.72;;;28.58;;
79076;SDS011;68477;42.698;23.342;2024-01-06T09:02:25;47.17;;;25.08;;
79076;SDS011;68477;42.698;23.342;2024-01-06T09:04:50;50.97;;;24.65;;
79076;SDS011;68477;42.698;23.342;2024-01-06T09:07:16;50.90;;;24.70;;
79076;SDS011;68477;42.698;23.342;2024-01-06T09:09:42;55.40;;;22.75;;
79076;SDS011;68477;42.698;23.342;2024-01-06T09:12:10;36.63;;;18.90;;
79076;SDS011;68477;42.698;23.342;2024-01-06T09:14:35;43.40;;;17.88;;
79076;SDS011;68477;42.698;23.342;2024-01-06T09:17:01;34.35;;;17.48;;
79076;SDS011;68477;42.698;23.342;2024-01-06T09:19:26;31.67;;;16.67;;
79076;SDS011;68477;42.698;23.342;2024-01-06T09:21:53;28.58;;;15.45;;
79076;SDS011;68477;42.698;23.342;2024-01-06T09:24:19;38.15;;;19.48;;
79076;SDS011;68477;42.698;23.342;2024-01-06T09:26:45;31.45;;;17.98;;
79076;SDS011;68477;42.698;23.342;2024-01-06T09:29:11;32.92;;;16.83;;
79076;SDS011;68477;42.698;23.342;2024-01-06T09:31:37;32.60;;;16.48;;
79076;SDS011;68477;42.698;23.342;2024-01-06T09:34:02;35.60;;;15.55;;
79076;SDS011;68477;42.698;23.342;2024-01-06T09:36:29;28.63;;;16.63;;
79076;SDS011;68477;42.698;23.342;2024-01-06T09:38:56;27.00;;;15.20;;
79076;SDS011;68477;42.698;23.342;2024-01-06T09:41:22;35.22;;;15.75;;
79076;SDS011;68477;42.698;23.342;2024-01-06T09:43:48;32.85;;;15.27;;
79076;SDS011;68477;42.698;23.342;2024-01-06T09:48:55;29.38;;;13.93;;
79076;SDS011;68477;42.698;23.342;2024-01-06T09:51:21;25.83;;;13.82;;
79076;SDS011;68477;42.698;23.342;2024-01-06T09:54:00;26.55;;;14.02;;
79076;SDS011;68477;42.698;23.342;2024-01-06T09:56:28;30.08;;;15.95;;
79076;SDS011;68477;42.698;23.342;2024-01-06T09:58:54;24.75;;;12.25;;
79076;SDS011;68477;42.698;23.342;2024-01-06T10:01:21;29.42;;;14.98;;
79076;SDS011;68477;42.698;23.342;2024-01-06T10:03:47;26.23;;;14.23;;
79076;SDS011;68477;42.698;23.342;2024-01-06T10:06:13;24.27;;;13.50;;
79076;SDS011;68477;42.698;23.342;2024-01-06T10:08:39;29.17;;;13.68;;
79076;SDS011;68477;42.698;23.342;2024-01-06T10:11:07;33.83;;;15.60;;
79076;SDS011;68477;42.698;23.342;2024-01-06T10:13:35;29.77;;;14.65;;
79076;SDS011;68477;42.698;23.342;2024-01-06T10:16:04;29.13;;;15.55;;
79076;SDS011;68477;42.698;23.342;2024-01-06T10:18:30;26.35;;;14.43;;
79076;SDS011;68477;42.698;23.342;2024-01-06T10:20:58;34.15;;;16.67;;
79076;SDS011;68477;42.698;23.342;2024-01-06T10:23:26;27.00;;;14.13;;
79076;SDS011;68477;42.698;23.342;2024-01-06T10:25:55;27.25;;;11.80;;
79076;SDS011;68477;42.698;23.342;2024-01-06T10:28:21;28.00;;;12.75;;
79076;SDS011;68477;42.698;23.342;2024-01-06T10:30:53;19.25;;;11.88;;
79076;SDS011;68477;42.698;23.342;2024-01-06T10:33:21;22.23;;;12.63;;
79076;SDS011;68477;42.698;23.342;2024-01-06T10:35:48;26.50;;;11.48;;
79076;SDS011;68477;42.698;23.342;2024-01-06T10:38:14;22.65;;;12.10;;
79076;SDS011;68477;42.698;23.342;2024-01-06T10:40:58;22.02;;;11.68;;
79076;SDS011;68477;42.698;23.342;2024-01-06T10:43:25;29.98;;;13.07;;
79076;SDS011;68477;42.698;23.342;2024-01-06T10:45:56;25.65;;;13.90;;
79076;SDS011;68477;42.698;23.342;2024-01-06T10:48:24;29.48;;;14.18;;
79076;SDS011;68477;42.698;23.342;2024-01-06T10:50:51;31.08;;;14.25;;
79076;SDS011;68477;42.698;23.342;2024-01-06T10:53:20;32.40;;;16.70;;
79076;SDS011;68477;42.698;23.342;2024-01-06T10:55:48;30.92;;;17.08;;
79076;SDS011;68477;42.698;23.342;2024-01-06T10:58:17;30.40;;;16.25;;
79076;SDS011;68477;42.698;23.342;2024-01-06T11:00:42;40.67;;;16.15;;
79076;SDS011;68477;42.698;23.342;2024-01-06T11:03:09;27.35;;;16.00;;
79076;SDS011;68477;42.698;23.342;2024-01-06T11:05:35;31.83;;;14.88;;
79076;SDS011;68477;42.698;23.342;2024-01-06T11:08:02;27.33;;;14.52;;
79076;SDS011;68477;42.698;23.342;2024-01-06T11:10:29;26.88;;;15.32;;
79076;SDS011;68477;42.698;23.342;2024-01-06T11:13:07;29.10;;;15.65;;
79076;SDS011;68477;42.698;23.342;2024-01-06T11:15:48;25.33;;;15.68;;
79076;SDS011;68477;42.698;23.342;2024-01-06T11:18:40;28.75;;;15.93;;
79076;SDS011;68477;42.698;23.342;2024-01-06T11:21:17;28.40;;;12.30;;
79076;SDS011;68477;42.698;23.342;2024-01-06T11:24:04;25.50;;;15.25;;
79076;SDS011;68477;42.698;23.342;2024-01-06T11:26:53;31.33;;;14.98;;
79076;SDS011;68477;42.698;23.342;2024-01-06T11:29:21;29.65;;;15.13;;
79076;SDS011;68477;42.698;23.342;2024-01-06T11:34:41;26.08;;;15.65;;
79076;SDS011;68477;42.698;23.342;2024-01-06T11:37:07;20.92;;;10.13;;
79076;SDS011;68477;42.698;23.342;2024-01-06T11:39:40;29.85;;;15.60;;
79076;SDS011;68477;42.698;23.342;2024-01-06T11:42:10;21.85;;;11.70;;
79076;SDS011;68477;42.698;23.342;2024-01-06T11:44:37;23.60;;;13.50;;
79076;SDS011;68477;42.698;23.342;2024-01-06T11:47:04;25.05;;;15.02;;
79076;SDS011;68477;42.698;23.342;2024-01-06T11:49:31;26.05;;;12.80;;
79076;SDS011;68477;42.698;23.342;2024-01-06T11:54:25;30.05;;;13.95;;
79076;SDS011;68477;42.698;23.342;2024-01-06T11:56:51;21.90;;;12.15;;
79076;SDS011;68477;42.698;23.342;2024-01-06T11:59:21;34.58;;;14.52;;
79076;SDS011;68477;42.698;23.342;2024-01-06T12:01:47;18.52;;;10.63;;
79076;SDS011;68477;42.698;23.342;2024-01-06T12:04:13;18.08;;;8.95;;
79076;SDS011;68477;42.698;23.342;2024-01-06T12:06:42;25.95;;;9.43;;
79076;SDS011;68477;42.698;23.342;2024-01-06T12:09:12;16.58;;;9.10;;
79076;SDS011;68477;42.698;23.342;2024-01-06T12:11:41;16.23;;;8.45;;
79076;SDS011;68477;42.698;23.342;2024-01-06T12:14:12;17.67;;;9.43;;
79076;SDS011;68477;42.698;23.342;2024-01-06T12:16:38;17.55;;;8.80;;
79076;SDS011;68477;42.698;23.342;2024-01-06T12:19:06;19.20;;;9.93;;
79076;SDS011;68477;42.698;23.342;2024-01-06T12:21:32;19.98;;;9.90;;
79076;SDS011;68477;42.698;23.342;2024-01-06T12:24:17;17.98;;;9.55;;
79076;SDS011;68477;42.698;23.342;2024-01-06T12:26:45;22.50;;;11.05;;
79076;SDS011;68477;42.698;23.342;2024-01-06T12:29:12;24.25;;;12.75;;
79076;SDS011;68477;42.698;23.342;2024-01-06T12:31:41;18.73;;;10.48;;
79076;SDS011;68477;42.698;23.342;2024-01-06T12:34:09;17.90;;;11.25;;
79076;SDS011;68477;42.698;23.342;2024-01-06T12:36:38;24.88;;;11.73;;
79076;SDS011;68477;42.698;23.342;2024-01-06T12:39:06;19.90;;;11.02;;
79076;SDS011;68477;42.698;23.342;2024-01-06T12:41:36;19.95;;;11.38;;
79076;SDS011;68477;42.698;23.342;2024-01-06T12:44:03;20.65;;;11.10;;
79076;SDS011;68477;42.698;23.342;2024-01-06T12:46:29;19.27;;;11.23;;
79076;SDS011;68477;42.698;23.342;2024-01-06T12:48:54;20.92;;;11.52;;
79076;SDS011;68477;42.698;23.342;2024-01-06T12:51:20;21.55;;;10.65;;
79076;SDS011;68477;42.698;23.342;2024-01-06T12:53:45;18.95;;;9.93;;
79076;SDS011;68477;42.698;23.342;2024-01-06T12:56:12;17.38;;;9.30;;
79076;SDS011;68477;42.698;23.342;2024-01-06T12:58:40;23.92;;;11.65;;
79076;SDS011;68477;42.698;23.342;2024-01-06T13:01:06;17.33;;;8.88;;
79076;SDS011;68477;42.698;23.342;2024-01-06T13:03:32;14.27;;;8.60;;
79076;SDS011;68477;42.698;23.342;2024-01-06T13:05:58;21.95;;;8.55;;
79076;SDS011;68477;42.698;23.342;2024-01-06T13:08:24;21.65;;;9.40;;
79076;SDS011;68477;42.698;23.342;2024-01-06T13:10:50;30.83;;;12.05;;
79076;SDS011;68477;42.698;23.342;2024-01-06T13:13:15;22.38;;;9.68;;
79076;SDS011;68477;42.698;23.342;2024-01-06T13:15:41;13.82;;;7.70;;
79076;SDS011;68477;42.698;23.342;2024-01-06T13:18:07;13.90;;;7.15;;
79076;SDS011;68477;42.698;23.342;2024-01-06T13:20:32;13.48;;;6.97;;
79076;SDS011;68477;42.698;23.342;2024-01-06T13:22:58;14.68;;;6.95;;
79076;SDS011;68477;42.698;23.342;2024-01-06T13:25:23;14.27;;;7.00;;
79076;SDS011;68477;42.698;23.342;2024-01-06T13:27:50;16.30;;;7.00;;
79076;SDS011;68477;42.698;23.342;2024-01-06T13:30:16;18.25;;;7.72;;
79076;SDS011;68477;42.698;23.342;2024-01-06T13:32:42;17.00;;;8.32;;
79076;SDS011;68477;42.698;23.342;2024-01-06T13:35:08;12.15;;;7.10;;
79076;SDS011;68477;42.698;23.342;2024-01-06T13:37:36;13.48;;;7.97;;
79076;SDS011;68477;42.698;23.342;2024-01-06T13:40:02;15.65;;;8.00;;
79076;SDS011;68477;42.698;23.342;2024-01-06T13:42:28;11.60;;;6.20;;
79076;SDS011;68477;42.698;23.342;2024-01-06T13:44:54;11.75;;;6.43;;
79076;SDS011;68477;42.698;23.342;2024-01-06T13:47:19;9.90;;;5.88;;
79076;SDS011;68477;42.698;23.342;2024-01-06T13:49:45;14.93;;;7.90;;
79076;SDS011;68477;42.698;23.342;2024-01-06T13:52:10;14.45;;;6.78;;
79076;SDS011;68477;42.698;23.342;2024-01-06T13:54:36;10.45;;;6.10;;
79076;SDS011;68477;42.698;23.342;2024-01-06T13:57:01;11.48;;;6.32;;
79076;SDS011;68477;42.698;23.342;2024-01-06T13:59:27;15.93;;;6.90;;
79076;SDS011;68477;42.698;23.342;2024-01-06T14:01:53;18.63;;;6.20;;
79076;SDS011;68477;42.698;23.342;2024-01-06T14:04:19;15.63;;;7.43;;
79076;SDS011;68477;42.698;23.342;2024-01-06T14:06:45;13.20;;;7.45;;
79076;SDS011;68477;42.698;23.342;2024-01-06T14:09:13;12.40;;;7.80;;
79076;SDS011;68477;42.698;23.342;2024-01-06T14:11:38;19.77;;;8.30;;
79076;SDS011;68477;42.698;23.342;2024-01-06T14:14:04;15.05;;;8.60;;
79076;SDS011;68477;42.698;23.342;2024-01-06T14:16:30;13.57;;;7.82;;